sensor_id;sensor_type;location;lat;lon;timestamp;temperature;humidity
17341;DHT22;8788;49.930;8.660;2024-02-26T00:00:12;9.60;99.90
17341;DHT22;8788;49.930;8.660;2024-02-26T00:02:39;9.50;99.90
17341;DHT22;8788;49.930;8.660;2024-02-26T00:05:07;9.60;99.90
17341;DHT22;8788;49.930;8.660;2024-02-26T00:07:36;9.60;99.90
17341;DHT22;8788;49.930;8.660;2024-02-26T00:10:05;9.60;99.90
17341;DHT22;8788;49.930;8.660;2024-02-26T00:12:32;9.60;99.90
17341;DHT22;8788;49.930;8.660;2024-02-26T00:14:59;9.50;99.90
17341;DHT22;8788;49.930;8.660;2024-02-26T00:17:26;9.50;99.90
17341;DHT22;8788;49.930;8.660;2024-02-26T00:19:53;9.40;99.90
17341;DHT22;8788;49.930;8.660;2024-02-26T00:22:20;9.40;99.90
17341;DHT22;8788;49.930;8.660;2024-02-26T00:24:50;9.30;99.90
17341;DHT22;8788;49.930;8.660;2024-02-26T00:27:17;9.40;99.90
17341;DHT22;8788;49.930;8.660;2024-02-26T00:29:44;9.40;99.90
17341;DHT22;8788;49.930;8.660;2024-02-26T00:32:11;9.40;99.90
17341;DHT22;8788;49.930;8.660;2024-02-26T00:34:38;9.40;99.90
17341;DHT22;8788;49.930;8.660;2024-02-26T00:37:05;9.40;99.90
17341;DHT22;8788;49.930;8.660;2024-02-26T00:39:32;9.40;99.90
17341;DHT22;8788;49.930;8.660;2024-02-26T00:42:01;9.40;99.90
17341;DHT22;8788;49.930;8.660;2024-02-26T00:44:28;9.40;99.90
17341;DHT22;8788;49.930;8.660;2024-02-26T00:46:55;9.40;99.90
17341;DHT22;8788;49.930;8.660;2024-02-26T00:49:22;9.40;99.90
17341;DHT22;8788;49.930;8.660;2024-02-26T00:51:49;9.40;99.90
17341;DHT22;8788;49.930;8.660;2024-02-26T00:54:16;9.30;99.90
17341;DHT22;8788;49.930;8.660;2024-02-26T00:56:43;9.40;99.90
17341;DHT22;8788;49.930;8.660;2024-02-26T00:59:12;9.40;99.90
17341;DHT22;8788;49.930;8.660;2024-02-26T01:01:39;9.40;99.90
17341;DHT22;8788;49.930;8.660;2024-02-26T01:04:06;9.40;99.90
17341;DHT22;8788;49.930;8.660;2024-02-26T01:06:33;9.30;99.90
17341;DHT22;8788;49.930;8.660;2024-02-26T01:09:00;9.30;99.90
17341;DHT22;8788;49.930;8.660;2024-02-26T01:11:27;9.20;99.90
17341;DHT22;8788;49.930;8.660;2024-02-26T01:13:54;9.20;99.90
17341;DHT22;8788;49.930;8.660;2024-02-26T01:16:23;9.20;99.90
17341;DHT22;8788;49.930;8.660;2024-02-26T01:18:50;9.20;99.90
17341;DHT22;8788;49.930;8.660;2024-02-26T01:21:17;9.20;99.90
17341;DHT22;8788;49.930;8.660;2024-02-26T01:23:45;9.20;99.90
17341;DHT22;8788;49.930;8.660;2024-02-26T01:26:12;9.20;99.90
17341;DHT22;8788;49.930;8.660;2024-02-26T01:28:39;9.20;99.90
17341;DHT22;8788;49.930;8.660;2024-02-26T01:31:06;9.20;99.90
17341;DHT22;8788;49.930;8.660;2024-02-26T01:33:36;9.20;99.90
17341;DHT22;8788;49.930;8.660;2024-02-26T01:36:03;9.10;99.90
17341;DHT22;8788;49.930;8.660;2024-02-26T01:38:31;9.20;99.90
17341;DHT22;8788;49.930;8.660;2024-02-26T01:40:58;9.30;99.90
17341;DHT22;8788;49.930;8.660;2024-02-26T01:43:25;9.30;99.90
17341;DHT22;8788;49.930;8.660;2024-02-26T01:45:52;9.30;99.90
17341;DHT22;8788;49.930;8.660;2024-02-26T01:48:19;9.30;99.90
17341;DHT22;8788;49.930;8.660;2024-02-26T01:50:48;9.30;99.90
17341;DHT22;8788;49.930;8.660;2024-02-26T01:53:15;9.30;99.90
17341;DHT22;8788;49.930;8.660;2024-02-26T01:55:43;9.30;99.90
17341;DHT22;8788;49.930;8.660;2024-02-26T01:58:10;9.20;99.90
17341;DHT22;8788;49.930;8.660;2024-02-26T02:00:38;9.30;99.90
17341;DHT22;8788;49.930;8.660;2024-02-26T02:03:06;9.30;99.90
17341;DHT22;8788;49.930;8.660;2024-02-26T02:05:33;9.30;99.90
17341;DHT22;8788;49.930;8.660;2024-02-26T02:08:06;9.40;99.90
17341;DHT22;8788;49.930;8.660;2024-02-26T02:10:34;9.40;99.90
17341;DHT22;8788;49.930;8.660;2024-02-26T02:13:01;9.30;99.90
17341;DHT22;8788;49.930;8.660;2024-02-26T02:15:28;9.40;99.90
17341;DHT22;8788;49.930;8.660;2024-02-26T02:17:55;9.40;99.90
17341;DHT22;8788;49.930;8.660;2024-02-26T02:20:26;9.40;99.90
17341;DHT22;8788;49.930;8.660;2024-02-26T02:22:58;9.40;99.90
17341;DHT22;8788;49.930;8.660;2024-02-26T02:25:25;9.40;99.90
17341;DHT22;8788;49.930;8.660;2024-02-26T02:27:53;9.40;99.90
17341;DHT22;8788;49.930;8.660;2024-02-26T02:30:21;9.40;99.90
17341;DHT22;8788;49.930;8.660;2024-02-26T02:32:51;9.40;99.90
17341;DHT22;8788;49.930;8.660;2024-02-26T02:35:18;9.40;99.90
17341;DHT22;8788;49.930;8.660;2024-02-26T02:37:46;9.40;99.90
17341;DHT22;8788;49.930;8.660;2024-02-26T02:40:14;9.30;99.90
17341;DHT22;8788;49.930;8.660;2024-02-26T02:42:41;9.40;99.90
17341;DHT22;8788;49.930;8.660;2024-02-26T02:45:09;9.40;99.90
17341;DHT22;8788;49.930;8.660;2024-02-26T02:47:36;9.40;99.90
17341;DHT22;8788;49.930;8.660;2024-02-26T02:50:04;9.40;99.90
17341;DHT22;8788;49.930;8.660;2024-02-26T02:52:32;9.50;99.90
17341;DHT22;8788;49.930;8.660;2024-02-26T02:55:00;9.40;99.90
17341;DHT22;8788;49.930;8.660;2024-02-26T02:57:28;9.40;99.90
17341;DHT22;8788;49.930;8.660;2024-02-26T02:59:55;9.40;99.90
17341;DHT22;8788;49.930;8.660;2024-02-26T03:02:22;9.40;99.90
17341;DHT22;8788;49.930;8.660;2024-02-26T03:04:50;9.40;99.90
17341;DHT22;8788;49.930;8.660;2024-02-26T03:07:17;9.40;99.90
17341;DHT22;8788;49.930;8.660;2024-02-26T03:09:44;9.40;99.90
17341;DHT22;8788;49.930;8.660;2024-02-26T03:12:13;9.40;99.90
17341;DHT22;8788;49.930;8.660;2024-02-26T03:14:40;9.40;99.90
17341;DHT22;8788;49.930;8.660;2024-02-26T03:17:07;9.40;99.90
17341;DHT22;8788;49.930;8.660;2024-02-26T03:19:34;9.30;99.90
17341;DHT22;8788;49.930;8.660;2024-02-26T03:22:01;9.30;99.90
17341;DHT22;8788;49.930;8.660;2024-02-26T03:24:28;9.30;99.90
17341;DHT22;8788;49.930;8.660;2024-02-26T03:26:56;9.30;99.90
17341;DHT22;8788;49.930;8.660;2024-02-26T03:29:24;9.30;99.90
17341;DHT22;8788;49.930;8.660;2024-02-26T03:31:51;9.30;99.90
17341;DHT22;8788;49.930;8.660;2024-02-26T03:34:19;9.30;99.90
17341;DHT22;8788;49.930;8.660;2024-02-26T03:36:46;9.20;99.90
17341;DHT22;8788;49.930;8.660;2024-02-26T03:39:13;9.20;99.90
17341;DHT22;8788;49.930;8.660;2024-02-26T03:41:40;9.30;99.90
17341;DHT22;8788;49.930;8.660;2024-02-26T03:44:07;9.20;99.90
17341;DHT22;8788;49.930;8.660;2024-02-26T03:46:35;9.30;99.90
17341;DHT22;8788;49.930;8.660;2024-02-26T03:49:02;9.30;99.90
17341;DHT22;8788;49.930;8.660;2024-02-26T03:51:29;9.30;99.90
17341;DHT22;8788;49.930;8.660;2024-02-26T03:53:57;9.30;99.90
17341;DHT22;8788;49.930;8.660;2024-02-26T03:56:25;9.30;99.90
17341;DHT22;8788;49.930;8.660;2024-02-26T03:58:52;9.20;99.90
17341;DHT22;8788;49.930;8.660;2024-02-26T04:01:19;9.20;99.90
17341;DHT22;8788;49.930;8.660;2024-02-26T04:03:47;9.20;99.90
17341;DHT22;8788;49.930;8.660;2024-02-26T04:06:15;9.20;99.90
17341;DHT22;8788;49.930;8.660;2024-02-26T04:08:43;9.20;99.90
17341;DHT22;8788;49.930;8.660;2024-02-26T04:11:10;9.20;99.90
17341;DHT22;8788;49.930;8.660;2024-02-26T04:13:37;9.20;99.90
17341;DHT22;8788;49.930;8.660;2024-02-26T04:16:04;9.10;99.90
17341;DHT22;8788;49.930;8.660;2024-02-26T04:18:31;9.10;99.90
17341;DHT22;8788;49.930;8.660;2024-02-26T04:21:00;9.10;99.90
17341;DHT22;8788;49.930;8.660;2024-02-26T04:23:27;9.10;99.90
17341;DHT22;8788;49.930;8.660;2024-02-26T04:25:54;9.00;99.90
17341;DHT22;8788;49.930;8.660;2024-02-26T04:28:21;8.90;99.90
17341;DHT22;8788;49.930;8.660;2024-02-26T04:30:51;8.90;99.90
17341;DHT22;8788;49.930;8.660;2024-02-26T04:33:18;8.90;99.90
17341;DHT22;8788;49.930;8.660;2024-02-26T04:35:45;9.00;99.90
17341;DHT22;8788;49.930;8.660;2024-02-26T04:38:13;9.00;99.90
17341;DHT22;8788;49.930;8.660;2024-02-26T04:40:40;8.90;99.90
17341;DHT22;8788;49.930;8.660;2024-02-26T04:43:08;8.90;99.90
17341;DHT22;8788;49.930;8.660;2024-02-26T04:45:35;8.80;99.90
17341;DHT22;8788;49.930;8.660;2024-02-26T04:48:02;8.80;99.90
17341;DHT22;8788;49.930;8.660;2024-02-26T04:50:29;8.80;99.90
17341;DHT22;8788;49.930;8.660;2024-02-26T04:52:56;8.80;99.90
17341;DHT22;8788;49.930;8.660;2024-02-26T04:55:24;8.80;99.90
17341;DHT22;8788;49.930;8.660;2024-02-26T04:57:52;8.70;99.90
17341;DHT22;8788;49.930;8.660;2024-02-26T05:00:19;8.70;99.90
17341;DHT22;8788;49.930;8.660;2024-02-26T05:02:46;8.70;99.90
17341;DHT22;8788;49.930;8.660;2024-02-26T05:05:13;8.60;99.90
17341;DHT22;8788;49.930;8.660;2024-02-26T05:07:40;8.50;99.90
17341;DHT22;8788;49.930;8.660;2024-02-26T05:10:09;8.40;99.90
17341;DHT22;8788;49.930;8.660;2024-02-26T05:12:37;8.50;99.90
17341;DHT22;8788;49.930;8.660;2024-02-26T05:15:07;8.50;99.90
17341;DHT22;8788;49.930;8.660;2024-02-26T05:17:34;8.40;99.90
17341;DHT22;8788;49.930;8.660;2024-02-26T05:20:01;8.40;99.90
17341;DHT22;8788;49.930;8.660;2024-02-26T05:22:28;8.40;99.90
17341;DHT22;8788;49.930;8.660;2024-02-26T05:24:55;8.50;99.90
17341;DHT22;8788;49.930;8.660;2024-02-26T05:27:23;8.50;99.90
17341;DHT22;8788;49.930;8.660;2024-02-26T05:29:51;8.40;99.90
17341;DHT22;8788;49.930;8.660;2024-02-26T05:32:19;8.40;99.90
17341;DHT22;8788;49.930;8.660;2024-02-26T05:34:46;8.40;99.90
17341;DHT22;8788;49.930;8.660;2024-02-26T05:37:13;8.30;99.90
17341;DHT22;8788;49.930;8.660;2024-02-26T05:39:40;8.20;99.90
17341;DHT22;8788;49.930;8.660;2024-02-26T05:42:07;8.20;99.90
17341;DHT22;8788;49.930;8.660;2024-02-26T05:44:35;8.20;99.90
17341;DHT22;8788;49.930;8.660;2024-02-26T05:47:04;8.20;99.90
17341;DHT22;8788;49.930;8.660;2024-02-26T05:49:31;8.10;99.90
17341;DHT22;8788;49.930;8.660;2024-02-26T05:51:59;8.10;99.90
17341;DHT22;8788;49.930;8.660;2024-02-26T05:54:26;8.10;99.90
17341;DHT22;8788;49.930;8.660;2024-02-26T05:56:53;8.10;99.90
17341;DHT22;8788;49.930;8.660;2024-02-26T05:59:20;8.10;99.90
17341;DHT22;8788;49.930;8.660;2024-02-26T06:01:47;8.10;99.90
17341;DHT22;8788;49.930;8.660;2024-02-26T06:04:15;8.10;99.90
17341;DHT22;8788;49.930;8.660;2024-02-26T06:06:44;8.10;99.90
17341;DHT22;8788;49.930;8.660;2024-02-26T06:09:11;8.10;99.90
17341;DHT22;8788;49.930;8.660;2024-02-26T06:11:38;8.10;99.90
17341;DHT22;8788;49.930;8.660;2024-02-26T06:14:05;8.00;99.90
17341;DHT22;8788;49.930;8.660;2024-02-26T06:16:32;8.00;99.90
17341;DHT22;8788;49.930;8.660;2024-02-26T06:19:01;8.00;99.90
17341;DHT22;8788;49.930;8.660;2024-02-26T06:21:29;8.00;99.90
17341;DHT22;8788;49.930;8.660;2024-02-26T06:23:56;8.00;99.90
17341;DHT22;8788;49.930;8.660;2024-02-26T06:26:24;7.90;99.90
17341;DHT22;8788;49.930;8.660;2024-02-26T06:28:54;7.90;99.90
17341;DHT22;8788;49.930;8.660;2024-02-26T06:31:21;7.90;99.90
17341;DHT22;8788;49.930;8.660;2024-02-26T06:33:49;7.90;99.90
17341;DHT22;8788;49.930;8.660;2024-02-26T06:36:16;7.90;99.90
17341;DHT22;8788;49.930;8.660;2024-02-26T06:38:44;7.90;99.90
17341;DHT22;8788;49.930;8.660;2024-02-26T06:41:11;7.90;99.90
17341;DHT22;8788;49.930;8.660;2024-02-26T06:43:38;7.80;99.90
17341;DHT22;8788;49.930;8.660;2024-02-26T06:46:06;7.80;99.90
17341;DHT22;8788;49.930;8.660;2024-02-26T06:48:33;7.80;99.90
17341;DHT22;8788;49.930;8.660;2024-02-26T06:51:02;7.80;99.90
17341;DHT22;8788;49.930;8.660;2024-02-26T06:53:29;7.80;99.90
17341;DHT22;8788;49.930;8.660;2024-02-26T06:55:58;7.80;99.90
17341;DHT22;8788;49.930;8.660;2024-02-26T06:58:25;7.80;99.90
17341;DHT22;8788;49.930;8.660;2024-02-26T07:00:52;7.80;99.90
17341;DHT22;8788;49.930;8.660;2024-02-26T07:03:19;7.80;99.90
17341;DHT22;8788;49.930;8.660;2024-02-26T07:05:48;7.80;99.90
17341;DHT22;8788;49.930;8.660;2024-02-26T07:08:15;7.70;99.90
17341;DHT22;8788;49.930;8.660;2024-02-26T07:10:42;7.70;99.90
17341;DHT22;8788;49.930;8.660;2024-02-26T07:13:10;7.60;99.90
17341;DHT22;8788;49.930;8.660;2024-02-26T07:15:38;7.60;99.90
17341;DHT22;8788;49.930;8.660;2024-02-26T07:18:05;7.60;99.90
17341;DHT22;8788;49.930;8.660;2024-02-26T07:20:32;7.60;99.90
17341;DHT22;8788;49.930;8.660;2024-02-26T07:22:59;7.60;99.90
17341;DHT22;8788;49.930;8.660;2024-02-26T07:25:26;7.60;99.90
17341;DHT22;8788;49.930;8.660;2024-02-26T07:27:53;7.60;99.90
17341;DHT22;8788;49.930;8.660;2024-02-26T07:30:22;7.70;99.90
17341;DHT22;8788;49.930;8.660;2024-02-26T07:32:50;7.70;99.90
17341;DHT22;8788;49.930;8.660;2024-02-26T07:35:17;7.70;99.90
17341;DHT22;8788;49.930;8.660;2024-02-26T07:37:44;7.70;99.90
17341;DHT22;8788;49.930;8.660;2024-02-26T07:40:11;7.70;99.90
17341;DHT22;8788;49.930;8.660;2024-02-26T07:42:38;7.70;99.90
17341;DHT22;8788;49.930;8.660;2024-02-26T07:45:06;7.70;99.90
17341;DHT22;8788;49.930;8.660;2024-02-26T07:47:35;7.70;99.90
17341;DHT22;8788;49.930;8.660;2024-02-26T07:50:04;7.80;99.90
17341;DHT22;8788;49.930;8.660;2024-02-26T07:52:31;7.80;99.90
17341;DHT22;8788;49.930;8.660;2024-02-26T07:54:58;7.80;99.90
17341;DHT22;8788;49.930;8.660;2024-02-26T07:57:25;7.80;99.90
17341;DHT22;8788;49.930;8.660;2024-02-26T07:59:52;7.80;99.90
17341;DHT22;8788;49.930;8.660;2024-02-26T08:02:19;7.80;99.90
17341;DHT22;8788;49.930;8.660;2024-02-26T08:04:49;7.90;99.90
17341;DHT22;8788;49.930;8.660;2024-02-26T08:07:16;7.90;99.90
17341;DHT22;8788;49.930;8.660;2024-02-26T08:09:43;7.90;99.90
17341;DHT22;8788;49.930;8.660;2024-02-26T08:12:10;8.00;99.90
17341;DHT22;8788;49.930;8.660;2024-02-26T08:14:37;8.00;99.90
17341;DHT22;8788;49.930;8.660;2024-02-26T08:17:04;8.10;99.90
17341;DHT22;8788;49.930;8.660;2024-02-26T08:19:31;8.10;99.90
17341;DHT22;8788;49.930;8.660;2024-02-26T08:22:00;8.10;99.90
17341;DHT22;8788;49.930;8.660;2024-02-26T08:24:27;8.20;99.90
17341;DHT22;8788;49.930;8.660;2024-02-26T08:26:54;8.20;99.90
17341;DHT22;8788;49.930;8.660;2024-02-26T08:29:21;8.20;99.90
17341;DHT22;8788;49.930;8.660;2024-02-26T08:31:48;8.20;99.90
17341;DHT22;8788;49.930;8.660;2024-02-26T08:34:15;8.20;99.90
17341;DHT22;8788;49.930;8.660;2024-02-26T08:36:43;8.20;99.90
17341;DHT22;8788;49.930;8.660;2024-02-26T08:39:11;8.30;99.90
17341;DHT22;8788;49.930;8.660;2024-02-26T08:41:39;8.30;99.90
17341;DHT22;8788;49.930;8.660;2024-02-26T08:44:06;8.40;99.90
17341;DHT22;8788;49.930;8.660;2024-02-26T08:46:33;8.40;99.90
17341;DHT22;8788;49.930;8.660;2024-02-26T08:49:00;8.50;99.90
17341;DHT22;8788;49.930;8.660;2024-02-26T08:51:27;8.50;99.90
17341;DHT22;8788;49.930;8.660;2024-02-26T08:53:54;8.60;99.90
17341;DHT22;8788;49.930;8.660;2024-02-26T08:56:23;8.70;99.90
17341;DHT22;8788;49.930;8.660;2024-02-26T08:58:50;8.70;99.90
17341;DHT22;8788;49.930;8.660;2024-02-26T09:01:19;8.70;99.90
17341;DHT22;8788;49.930;8.660;2024-02-26T09:03:46;8.60;99.90
17341;DHT22;8788;49.930;8.660;2024-02-26T09:06:15;8.60;99.90
17341;DHT22;8788;49.930;8.660;2024-02-26T09:08:42;8.60;99.90
17341;DHT22;8788;49.930;8.660;2024-02-26T09:11:09;8.60;99.90
17341;DHT22;8788;49.930;8.660;2024-02-26T09:13:38;8.60;99.90
17341;DHT22;8788;49.930;8.660;2024-02-26T09:16:05;8.60;99.90
17341;DHT22;8788;49.930;8.660;2024-02-26T09:18:32;8.60;99.90
17341;DHT22;8788;49.930;8.660;2024-02-26T09:20:59;8.50;99.90
17341;DHT22;8788;49.930;8.660;2024-02-26T09:23:26;8.50;99.90
17341;DHT22;8788;49.930;8.660;2024-02-26T09:25:53;8.60;99.90
17341;DHT22;8788;49.930;8.660;2024-02-26T09:28:20;8.60;99.90
17341;DHT22;8788;49.930;8.660;2024-02-26T09:30:49;8.70;99.90
17341;DHT22;8788;49.930;8.660;2024-02-26T09:33:17;8.80;99.90
17341;DHT22;8788;49.930;8.660;2024-02-26T09:35:44;8.90;99.90
17341;DHT22;8788;49.930;8.660;2024-02-26T09:38:11;9.00;99.90
17341;DHT22;8788;49.930;8.660;2024-02-26T09:40:39;9.00;99.90
17341;DHT22;8788;49.930;8.660;2024-02-26T09:43:07;9.10;99.90
17341;DHT22;8788;49.930;8.660;2024-02-26T09:45:37;9.20;99.90
17341;DHT22;8788;49.930;8.660;2024-02-26T09:48:08;9.30;99.90
17341;DHT22;8788;49.930;8.660;2024-02-26T09:50:35;9.40;99.90
17341;DHT22;8788;49.930;8.660;2024-02-26T09:53:04;9.40;99.90
17341;DHT22;8788;49.930;8.660;2024-02-26T09:55:33;9.40;99.90
17341;DHT22;8788;49.930;8.660;2024-02-26T09:58:00;9.50;99.90
17341;DHT22;8788;49.930;8.660;2024-02-26T10:00:30;9.50;99.90
17341;DHT22;8788;49.930;8.660;2024-02-26T10:03:03;9.50;99.90
17341;DHT22;8788;49.930;8.660;2024-02-26T10:05:33;9.70;99.90
17341;DHT22;8788;49.930;8.660;2024-02-26T10:08:01;9.80;99.90
17341;DHT22;8788;49.930;8.660;2024-02-26T10:10:29;9.90;99.90
17341;DHT22;8788;49.930;8.660;2024-02-26T10:12:57;10.00;99.90
17341;DHT22;8788;49.930;8.660;2024-02-26T10:15:25;10.10;99.90
17341;DHT22;8788;49.930;8.660;2024-02-26T10:17:53;10.20;99.90
17341;DHT22;8788;49.930;8.660;2024-02-26T10:20:20;10.50;99.90
17341;DHT22;8788;49.930;8.660;2024-02-26T10:22:50;10.70;99.90
17341;DHT22;8788;49.930;8.660;2024-02-26T10:25:18;10.90;99.90
17341;DHT22;8788;49.930;8.660;2024-02-26T10:27:45;11.00;99.90
17341;DHT22;8788;49.930;8.660;2024-02-26T10:30:16;11.10;99.90
17341;DHT22;8788;49.930;8.660;2024-02-26T10:32:45;11.30;99.90
17341;DHT22;8788;49.930;8.660;2024-02-26T10:35:12;11.50;99.90
17341;DHT22;8788;49.930;8.660;2024-02-26T10:37:40;11.70;99.90
17341;DHT22;8788;49.930;8.660;2024-02-26T10:40:11;11.90;99.90
17341;DHT22;8788;49.930;8.660;2024-02-26T10:42:38;12.10;99.90
17341;DHT22;8788;49.930;8.660;2024-02-26T10:45:05;12.10;99.90
17341;DHT22;8788;49.930;8.660;2024-02-26T10:47:34;12.00;99.90
17341;DHT22;8788;49.930;8.660;2024-02-26T10:50:02;11.90;99.90
17341;DHT22;8788;49.930;8.660;2024-02-26T10:52:31;11.80;99.90
17341;DHT22;8788;49.930;8.660;2024-02-26T10:55:01;11.70;99.90
17341;DHT22;8788;49.930;8.660;2024-02-26T10:57:33;11.60;99.90
17341;DHT22;8788;49.930;8.660;2024-02-26T11:00:02;11.50;99.90
17341;DHT22;8788;49.930;8.660;2024-02-26T11:02:32;11.50;99.90
17341;DHT22;8788;49.930;8.660;2024-02-26T11:05:01;11.50;99.90
17341;DHT22;8788;49.930;8.660;2024-02-26T11:07:30;11.60;99.90
17341;DHT22;8788;49.930;8.660;2024-02-26T11:09:57;11.60;99.90
17341;DHT22;8788;49.930;8.660;2024-02-26T11:12:28;11.50;99.90
17341;DHT22;8788;49.930;8.660;2024-02-26T11:14:57;11.50;99.90
17341;DHT22;8788;49.930;8.660;2024-02-26T11:17:27;11.50;99.90
17341;DHT22;8788;49.930;8.660;2024-02-26T11:19:57;11.50;99.90
17341;DHT22;8788;49.930;8.660;2024-02-26T11:22:25;11.40;99.90
17341;DHT22;8788;49.930;8.660;2024-02-26T11:24:53;11.40;99.90
17341;DHT22;8788;49.930;8.660;2024-02-26T11:27:25;11.50;99.90
17341;DHT22;8788;49.930;8.660;2024-02-26T11:29:58;11.60;99.90
17341;DHT22;8788;49.930;8.660;2024-02-26T11:32:26;11.70;99.90
17341;DHT22;8788;49.930;8.660;2024-02-26T11:34:56;11.80;99.90
17341;DHT22;8788;49.930;8.660;2024-02-26T11:37:23;11.90;99.90
17341;DHT22;8788;49.930;8.660;2024-02-26T11:39:51;11.90;99.90
17341;DHT22;8788;49.930;8.660;2024-02-26T11:42:23;11.80;99.90
17341;DHT22;8788;49.930;8.660;2024-02-26T11:44:51;11.80;99.90
17341;DHT22;8788;49.930;8.660;2024-02-26T11:47:20;11.70;99.90
17341;DHT22;8788;49.930;8.660;2024-02-26T11:49:48;11.60;99.90
17341;DHT22;8788;49.930;8.660;2024-02-26T11:52:15;11.60;99.90
17341;DHT22;8788;49.930;8.660;2024-02-26T11:54:47;11.70;99.90
17341;DHT22;8788;49.930;8.660;2024-02-26T11:57:24;11.90;99.90
17341;DHT22;8788;49.930;8.660;2024-02-26T11:59:52;12.30;99.90
17341;DHT22;8788;49.930;8.660;2024-02-26T12:02:39;12.50;99.90
17341;DHT22;8788;49.930;8.660;2024-02-26T12:05:09;12.60;99.90
17341;DHT22;8788;49.930;8.660;2024-02-26T12:07:39;12.60;99.90
17341;DHT22;8788;49.930;8.660;2024-02-26T12:10:17;12.60;99.90
17341;DHT22;8788;49.930;8.660;2024-02-26T12:12:47;12.50;99.90
17341;DHT22;8788;49.930;8.660;2024-02-26T12:15:15;12.40;99.90
17341;DHT22;8788;49.930;8.660;2024-02-26T12:17:48;12.40;99.90
17341;DHT22;8788;49.930;8.660;2024-02-26T12:20:17;12.30;99.90
17341;DHT22;8788;49.930;8.660;2024-02-26T12:22:46;12.30;99.90
17341;DHT22;8788;49.930;8.660;2024-02-26T12:25:13;12.50;99.90
17341;DHT22;8788;49.930;8.660;2024-02-26T12:27:41;12.50;99.90
17341;DHT22;8788;49.930;8.660;2024-02-26T12:30:09;12.50;99.90
17341;DHT22;8788;49.930;8.660;2024-02-26T12:32:36;12.50;99.90
17341;DHT22;8788;49.930;8.660;2024-02-26T12:35:06;12.50;99.90
17341;DHT22;8788;49.930;8.660;2024-02-26T12:37:34;12.50;99.90
17341;DHT22;8788;49.930;8.660;2024-02-26T12:40:04;12.50;99.90
17341;DHT22;8788;49.930;8.660;2024-02-26T12:42:34;12.50;99.90
17341;DHT22;8788;49.930;8.660;2024-02-26T12:45:06;12.40;99.90
17341;DHT22;8788;49.930;8.660;2024-02-26T12:47:38;12.40;99.90
17341;DHT22;8788;49.930;8.660;2024-02-26T12:50:08;12.40;99.90
17341;DHT22;8788;49.930;8.660;2024-02-26T12:52:38;12.40;99.90
17341;DHT22;8788;49.930;8.660;2024-02-26T12:55:06;12.50;99.90
17341;DHT22;8788;49.930;8.660;2024-02-26T12:57:36;12.50;99.90
17341;DHT22;8788;49.930;8.660;2024-02-26T13:00:05;12.50;99.90
17341;DHT22;8788;49.930;8.660;2024-02-26T13:02:35;12.50;99.90
17341;DHT22;8788;49.930;8.660;2024-02-26T13:05:03;12.60;99.90
17341;DHT22;8788;49.930;8.660;2024-02-26T13:07:32;12.70;99.90
17341;DHT22;8788;49.930;8.660;2024-02-26T13:10:00;12.80;99.90
17341;DHT22;8788;49.930;8.660;2024-02-26T13:12:27;12.90;99.90
17341;DHT22;8788;49.930;8.660;2024-02-26T13:15:00;13.10;99.90
17341;DHT22;8788;49.930;8.660;2024-02-26T13:17:31;13.30;99.90
17341;DHT22;8788;49.930;8.660;2024-02-26T13:19:58;13.50;99.90
17341;DHT22;8788;49.930;8.660;2024-02-26T13:22:25;13.50;99.90
17341;DHT22;8788;49.930;8.660;2024-02-26T13:24:58;13.60;99.90
17341;DHT22;8788;49.930;8.660;2024-02-26T13:27:26;13.70;99.90
17341;DHT22;8788;49.930;8.660;2024-02-26T13:30:09;13.60;99.90
17341;DHT22;8788;49.930;8.660;2024-02-26T13:32:38;13.50;99.90
17341;DHT22;8788;49.930;8.660;2024-02-26T13:35:06;13.40;99.90
17341;DHT22;8788;49.930;8.660;2024-02-26T13:37:34;13.50;99.90
17341;DHT22;8788;49.930;8.660;2024-02-26T13:40:04;13.70;99.90
17341;DHT22;8788;49.930;8.660;2024-02-26T13:42:31;13.90;99.90
17341;DHT22;8788;49.930;8.660;2024-02-26T13:44:59;14.10;99.90
17341;DHT22;8788;49.930;8.660;2024-02-26T13:47:26;14.30;99.90
17341;DHT22;8788;49.930;8.660;2024-02-26T13:49:53;14.50;99.90
17341;DHT22;8788;49.930;8.660;2024-02-26T13:52:20;14.90;99.90
17341;DHT22;8788;49.930;8.660;2024-02-26T13:54:47;15.30;99.90
17341;DHT22;8788;49.930;8.660;2024-02-26T13:57:15;15.40;99.90
17341;DHT22;8788;49.930;8.660;2024-02-26T13:59:43;15.50;99.90
17341;DHT22;8788;49.930;8.660;2024-02-26T14:02:10;15.60;99.90
17341;DHT22;8788;49.930;8.660;2024-02-26T14:04:37;15.90;99.90
17341;DHT22;8788;49.930;8.660;2024-02-26T14:07:05;16.00;99.90
17341;DHT22;8788;49.930;8.660;2024-02-26T14:09:32;16.00;99.90
17341;DHT22;8788;49.930;8.660;2024-02-26T14:11:59;16.20;99.90
17341;DHT22;8788;49.930;8.660;2024-02-26T14:14:28;16.10;99.90
17341;DHT22;8788;49.930;8.660;2024-02-26T14:16:58;15.70;99.90
17341;DHT22;8788;49.930;8.660;2024-02-26T14:19:26;15.20;99.90
17341;DHT22;8788;49.930;8.660;2024-02-26T14:21:53;15.00;99.90
17341;DHT22;8788;49.930;8.660;2024-02-26T14:24:20;14.70;99.90
17341;DHT22;8788;49.930;8.660;2024-02-26T14:26:47;14.30;99.90
17341;DHT22;8788;49.930;8.660;2024-02-26T14:29:14;14.10;99.90
17341;DHT22;8788;49.930;8.660;2024-02-26T14:31:43;13.90;99.90
17341;DHT22;8788;49.930;8.660;2024-02-26T14:34:10;13.80;99.90
17341;DHT22;8788;49.930;8.660;2024-02-26T14:36:37;13.70;99.90
17341;DHT22;8788;49.930;8.660;2024-02-26T14:39:04;13.60;99.90
17341;DHT22;8788;49.930;8.660;2024-02-26T14:41:31;13.60;99.90
17341;DHT22;8788;49.930;8.660;2024-02-26T14:43:58;13.50;99.90
17341;DHT22;8788;49.930;8.660;2024-02-26T14:46:25;13.40;99.90
17341;DHT22;8788;49.930;8.660;2024-02-26T14:48:54;13.40;99.90
17341;DHT22;8788;49.930;8.660;2024-02-26T14:51:22;13.30;99.90
17341;DHT22;8788;49.930;8.660;2024-02-26T14:53:49;13.30;99.90
17341;DHT22;8788;49.930;8.660;2024-02-26T14:56:16;13.30;99.90
17341;DHT22;8788;49.930;8.660;2024-02-26T14:58:44;13.20;99.90
17341;DHT22;8788;49.930;8.660;2024-02-26T15:01:12;13.30;99.90
17341;DHT22;8788;49.930;8.660;2024-02-26T15:03:39;13.30;99.90
17341;DHT22;8788;49.930;8.660;2024-02-26T15:06:08;13.50;99.90
17341;DHT22;8788;49.930;8.660;2024-02-26T15:08:35;13.70;99.90
17341;DHT22;8788;49.930;8.660;2024-02-26T15:11:03;14.50;99.90
17341;DHT22;8788;49.930;8.660;2024-02-26T15:13:30;16.00;99.90
17341;DHT22;8788;49.930;8.660;2024-02-26T15:15:57;18.10;99.90
17341;DHT22;8788;49.930;8.660;2024-02-26T15:18:25;18.70;99.90
17341;DHT22;8788;49.930;8.660;2024-02-26T15:20:53;19.00;99.90
17341;DHT22;8788;49.930;8.660;2024-02-26T15:23:21;18.10;99.90
17341;DHT22;8788;49.930;8.660;2024-02-26T15:25:48;16.90;99.90
17341;DHT22;8788;49.930;8.660;2024-02-26T15:28:15;15.90;99.90
17341;DHT22;8788;49.930;8.660;2024-02-26T15:30:42;15.30;99.90
17341;DHT22;8788;49.930;8.660;2024-02-26T15:33:09;14.90;99.90
17341;DHT22;8788;49.930;8.660;2024-02-26T15:35:37;14.60;99.90
17341;DHT22;8788;49.930;8.660;2024-02-26T15:38:04;14.40;99.90
17341;DHT22;8788;49.930;8.660;2024-02-26T15:40:33;14.30;99.90
17341;DHT22;8788;49.930;8.660;2024-02-26T15:43:00;14.30;99.90
17341;DHT22;8788;49.930;8.660;2024-02-26T15:45:27;14.40;99.90
17341;DHT22;8788;49.930;8.660;2024-02-26T15:47:58;14.30;99.90
17341;DHT22;8788;49.930;8.660;2024-02-26T15:50:25;14.40;99.90
17341;DHT22;8788;49.930;8.660;2024-02-26T15:52:52;14.60;99.90
17341;DHT22;8788;49.930;8.660;2024-02-26T15:55:19;14.80;99.90
17341;DHT22;8788;49.930;8.660;2024-02-26T15:57:48;15.20;99.90